sensor_id;sensor_type;location;lat;lon;timestamp;temperature;humidity
10300;DHT22;5195;48.562;9.192;2024-02-26T00:00:29;10.70;36.60
10300;DHT22;5195;48.562;9.192;2024-02-26T00:02:56;10.80;35.10
10300;DHT22;5195;48.562;9.192;2024-02-26T00:05:21;11.00;33.80
10300;DHT22;5195;48.562;9.192;2024-02-26T00:07:47;11.20;33.00
10300;DHT22;5195;48.562;9.192;2024-02-26T00:10:14;11.10;33.20
10300;DHT22;5195;48.562;9.192;2024-02-26T00:12:41;10.80;33.50
10300;DHT22;5195;48.562;9.192;2024-02-26T00:15:08;10.60;33.70
10300;DHT22;5195;48.562;9.192;2024-02-26T00:17:32;10.40;33.80
10300;DHT22;5195;48.562;9.192;2024-02-26T00:19:57;10.30;33.90
10300;DHT22;5195;48.562;9.192;2024-02-26T00:22:24;10.50;32.50
10300;DHT22;5195;48.562;9.192;2024-02-26T00:24:51;10.50;32.70
10300;DHT22;5195;48.562;9.192;2024-02-26T00:27:17;10.70;32.00
10300;DHT22;5195;48.562;9.192;2024-02-26T00:29:42;11.00;31.40
10300;DHT22;5195;48.562;9.192;2024-02-26T00:32:08;11.00;31.60
10300;DHT22;5195;48.562;9.192;2024-02-26T00:34:33;11.10;31.40
10300;DHT22;5195;48.562;9.192;2024-02-26T00:36:59;11.40;31.30
10300;DHT22;5195;48.562;9.192;2024-02-26T00:39:25;11.50;30.80
10300;DHT22;5195;48.562;9.192;2024-02-26T00:41:50;11.50;31.20
10300;DHT22;5195;48.562;9.192;2024-02-26T00:44:16;11.50;31.40
10300;DHT22;5195;48.562;9.192;2024-02-26T00:46:41;11.40;31.70
10300;DHT22;5195;48.562;9.192;2024-02-26T00:49:08;11.60;31.70
10300;DHT22;5195;48.562;9.192;2024-02-26T00:51:33;11.50;31.70
10300;DHT22;5195;48.562;9.192;2024-02-26T00:53:59;11.50;32.00
10300;DHT22;5195;48.562;9.192;2024-02-26T00:56:24;11.40;32.00
10300;DHT22;5195;48.562;9.192;2024-02-26T00:58:50;11.30;32.20
10300;DHT22;5195;48.562;9.192;2024-02-26T01:01:16;10.90;32.90
10300;DHT22;5195;48.562;9.192;2024-02-26T01:03:43;10.80;32.80
10300;DHT22;5195;48.562;9.192;2024-02-26T01:06:09;10.90;33.40
10300;DHT22;5195;48.562;9.192;2024-02-26T01:08:35;10.90;33.30
10300;DHT22;5195;48.562;9.192;2024-02-26T01:11:00;10.70;33.30
10300;DHT22;5195;48.562;9.192;2024-02-26T01:13:26;10.50;33.60
10300;DHT22;5195;48.562;9.192;2024-02-26T01:15:51;10.40;34.00
10300;DHT22;5195;48.562;9.192;2024-02-26T01:18:17;10.60;33.50
10300;DHT22;5195;48.562;9.192;2024-02-26T01:20:42;10.90;33.60
10300;DHT22;5195;48.562;9.192;2024-02-26T01:23:08;11.20;33.50
10300;DHT22;5195;48.562;9.192;2024-02-26T01:25:34;11.40;33.10
10300;DHT22;5195;48.562;9.192;2024-02-26T01:28:01;11.50;32.60
10300;DHT22;5195;48.562;9.192;2024-02-26T01:30:26;11.60;32.40
10300;DHT22;5195;48.562;9.192;2024-02-26T01:32:52;11.50;32.60
10300;DHT22;5195;48.562;9.192;2024-02-26T01:35:18;11.10;33.00
10300;DHT22;5195;48.562;9.192;2024-02-26T01:37:43;10.80;33.60
10300;DHT22;5195;48.562;9.192;2024-02-26T01:40:09;10.80;33.50
10300;DHT22;5195;48.562;9.192;2024-02-26T01:42:35;11.10;33.10
10300;DHT22;5195;48.562;9.192;2024-02-26T01:45:00;11.30;32.60
10300;DHT22;5195;48.562;9.192;2024-02-26T01:47:26;11.50;32.40
10300;DHT22;5195;48.562;9.192;2024-02-26T01:49:51;11.60;32.00
10300;DHT22;5195;48.562;9.192;2024-02-26T01:52:17;11.50;32.40
10300;DHT22;5195;48.562;9.192;2024-02-26T01:54:42;11.10;32.70
10300;DHT22;5195;48.562;9.192;2024-02-26T01:57:11;10.90;33.20
10300;DHT22;5195;48.562;9.192;2024-02-26T01:59:37;10.90;33.10
10300;DHT22;5195;48.562;9.192;2024-02-26T02:02:03;10.80;33.00
10300;DHT22;5195;48.562;9.192;2024-02-26T02:04:28;11.00;33.90
10300;DHT22;5195;48.562;9.192;2024-02-26T02:06:54;10.90;33.60
10300;DHT22;5195;48.562;9.192;2024-02-26T02:09:19;10.70;33.60
10300;DHT22;5195;48.562;9.192;2024-02-26T02:11:46;10.60;33.90
10300;DHT22;5195;48.562;9.192;2024-02-26T02:14:13;10.60;33.90
10300;DHT22;5195;48.562;9.192;2024-02-26T02:16:39;10.80;34.20
10300;DHT22;5195;48.562;9.192;2024-02-26T02:19:05;10.80;34.20
10300;DHT22;5195;48.562;9.192;2024-02-26T02:21:31;10.60;34.50
10300;DHT22;5195;48.562;9.192;2024-02-26T02:23:58;10.70;35.30
10300;DHT22;5195;48.562;9.192;2024-02-26T02:26:23;10.60;35.20
10300;DHT22;5195;48.562;9.192;2024-02-26T02:28:49;10.40;35.60
10300;DHT22;5195;48.562;9.192;2024-02-26T02:31:15;10.50;35.60
10300;DHT22;5195;48.562;9.192;2024-02-26T02:33:42;10.40;35.20
10300;DHT22;5195;48.562;9.192;2024-02-26T02:36:08;10.30;35.10
10300;DHT22;5195;48.562;9.192;2024-02-26T02:38:33;10.20;35.20
10300;DHT22;5195;48.562;9.192;2024-02-26T02:40:59;10.30;34.90
10300;DHT22;5195;48.562;9.192;2024-02-26T02:43:24;10.40;34.80
10300;DHT22;5195;48.562;9.192;2024-02-26T02:45:50;10.20;34.80
10300;DHT22;5195;48.562;9.192;2024-02-26T02:48:15;10.10;35.10
10300;DHT22;5195;48.562;9.192;2024-02-26T02:50:41;10.20;36.30
10300;DHT22;5195;48.562;9.192;2024-02-26T02:53:07;10.50;36.90
10300;DHT22;5195;48.562;9.192;2024-02-26T02:55:33;10.50;36.90
10300;DHT22;5195;48.562;9.192;2024-02-26T02:57:59;10.30;37.20
10300;DHT22;5195;48.562;9.192;2024-02-26T03:00:24;10.30;38.20
10300;DHT22;5195;48.562;9.192;2024-02-26T03:02:50;10.50;38.30
10300;DHT22;5195;48.562;9.192;2024-02-26T03:05:17;10.70;37.70
10300;DHT22;5195;48.562;9.192;2024-02-26T03:07:44;10.70;36.90
10300;DHT22;5195;48.562;9.192;2024-02-26T03:10:10;10.70;36.90
10300;DHT22;5195;48.562;9.192;2024-02-26T03:12:35;10.40;37.20
10300;DHT22;5195;48.562;9.192;2024-02-26T03:15:04;10.10;37.50
10300;DHT22;5195;48.562;9.192;2024-02-26T03:17:30;10.20;38.30
10300;DHT22;5195;48.562;9.192;2024-02-26T03:19:57;10.10;38.20
10300;DHT22;5195;48.562;9.192;2024-02-26T03:22:23;10.30;38.70
10300;DHT22;5195;48.562;9.192;2024-02-26T03:24:49;10.60;38.30
10300;DHT22;5195;48.562;9.192;2024-02-26T03:27:14;10.80;37.90
10300;DHT22;5195;48.562;9.192;2024-02-26T03:29:41;10.60;38.30
10300;DHT22;5195;48.562;9.192;2024-02-26T03:32:06;10.60;38.30
10300;DHT22;5195;48.562;9.192;2024-02-26T03:34:33;10.80;38.40
10300;DHT22;5195;48.562;9.192;2024-02-26T03:36:57;10.60;38.00
10300;DHT22;5195;48.562;9.192;2024-02-26T03:39:24;10.60;38.40
10300;DHT22;5195;48.562;9.192;2024-02-26T03:41:50;10.80;38.50
10300;DHT22;5195;48.562;9.192;2024-02-26T03:44:15;10.90;37.70
10300;DHT22;5195;48.562;9.192;2024-02-26T03:46:41;11.10;38.00
10300;DHT22;5195;48.562;9.192;2024-02-26T03:49:07;10.90;37.90
10300;DHT22;5195;48.562;9.192;2024-02-26T03:51:32;10.80;38.10
10300;DHT22;5195;48.562;9.192;2024-02-26T03:53:58;10.90;38.60
10300;DHT22;5195;48.562;9.192;2024-02-26T03:56:25;10.90;38.50
10300;DHT22;5195;48.562;9.192;2024-02-26T03:58:50;10.80;38.30
10300;DHT22;5195;48.562;9.192;2024-02-26T04:01:15;10.50;38.50
10300;DHT22;5195;48.562;9.192;2024-02-26T04:03:41;10.20;38.60
10300;DHT22;5195;48.562;9.192;2024-02-26T04:06:08;10.00;38.70
10300;DHT22;5195;48.562;9.192;2024-02-26T04:08:33;9.70;39.50
10300;DHT22;5195;48.562;9.192;2024-02-26T04:10:58;9.60;39.80
10300;DHT22;5195;48.562;9.192;2024-02-26T04:13:25;9.60;40.00
10300;DHT22;5195;48.562;9.192;2024-02-26T04:15:50;9.40;40.00
10300;DHT22;5195;48.562;9.192;2024-02-26T04:18:16;9.40;40.00
10300;DHT22;5195;48.562;9.192;2024-02-26T04:20:41;9.70;39.20
10300;DHT22;5195;48.562;9.192;2024-02-26T04:23:07;10.10;37.70
10300;DHT22;5195;48.562;9.192;2024-02-26T04:25:33;10.40;37.50
10300;DHT22;5195;48.562;9.192;2024-02-26T04:27:58;10.40;37.40
10300;DHT22;5195;48.562;9.192;2024-02-26T04:30:24;10.20;37.70
10300;DHT22;5195;48.562;9.192;2024-02-26T04:32:49;9.90;39.00
10300;DHT22;5195;48.562;9.192;2024-02-26T04:35:15;10.00;39.60
10300;DHT22;5195;48.562;9.192;2024-02-26T04:37:44;10.30;38.50
10300;DHT22;5195;48.562;9.192;2024-02-26T04:40:09;10.30;38.50
10300;DHT22;5195;48.562;9.192;2024-02-26T04:42:36;10.30;39.00
10300;DHT22;5195;48.562;9.192;2024-02-26T04:45:01;10.30;38.90
10300;DHT22;5195;48.562;9.192;2024-02-26T04:47:27;10.30;39.40
10300;DHT22;5195;48.562;9.192;2024-02-26T04:49:52;10.60;38.50
10300;DHT22;5195;48.562;9.192;2024-02-26T04:52:20;10.10;38.30
10300;DHT22;5195;48.562;9.192;2024-02-26T04:54:44;10.20;39.00
10300;DHT22;5195;48.562;9.192;2024-02-26T04:57:10;9.90;39.60
10300;DHT22;5195;48.562;9.192;2024-02-26T04:59:36;10.00;39.30
10300;DHT22;5195;48.562;9.192;2024-02-26T05:02:03;10.00;39.70
10300;DHT22;5195;48.562;9.192;2024-02-26T05:04:28;10.00;39.70
10300;DHT22;5195;48.562;9.192;2024-02-26T05:06:54;10.30;39.40
10300;DHT22;5195;48.562;9.192;2024-02-26T05:09:19;10.20;39.00
10300;DHT22;5195;48.562;9.192;2024-02-26T05:11:46;10.20;39.10
10300;DHT22;5195;48.562;9.192;2024-02-26T05:14:12;10.20;39.10
10300;DHT22;5195;48.562;9.192;2024-02-26T05:16:38;10.20;40.00
10300;DHT22;5195;48.562;9.192;2024-02-26T05:19:04;10.20;39.60
10300;DHT22;5195;48.562;9.192;2024-02-26T05:21:29;10.30;40.00
10300;DHT22;5195;48.562;9.192;2024-02-26T05:23:55;10.50;40.20
10300;DHT22;5195;48.562;9.192;2024-02-26T05:26:24;10.40;40.00
10300;DHT22;5195;48.562;9.192;2024-02-26T05:28:50;10.10;40.00
10300;DHT22;5195;48.562;9.192;2024-02-26T05:31:16;10.10;40.30
10300;DHT22;5195;48.562;9.192;2024-02-26T05:33:41;10.10;40.30
10300;DHT22;5195;48.562;9.192;2024-02-26T05:36:07;9.90;41.40
10300;DHT22;5195;48.562;9.192;2024-02-26T05:38:33;9.80;42.90
10300;DHT22;5195;48.562;9.192;2024-02-26T05:41:00;9.80;42.90
10300;DHT22;5195;48.562;9.192;2024-02-26T05:43:27;9.80;42.60
10300;DHT22;5195;48.562;9.192;2024-02-26T05:45:52;9.80;42.70
10300;DHT22;5195;48.562;9.192;2024-02-26T05:48:18;9.80;42.30
10300;DHT22;5195;48.562;9.192;2024-02-26T05:50:43;9.60;42.30
10300;DHT22;5195;48.562;9.192;2024-02-26T05:53:09;9.40;42.40
10300;DHT22;5195;48.562;9.192;2024-02-26T05:55:34;9.50;43.40
10300;DHT22;5195;48.562;9.192;2024-02-26T05:58:00;9.80;43.00
10300;DHT22;5195;48.562;9.192;2024-02-26T06:00:26;9.70;42.40
10300;DHT22;5195;48.562;9.192;2024-02-26T06:02:51;9.50;42.60
10300;DHT22;5195;48.562;9.192;2024-02-26T06:05:17;9.50;43.30
10300;DHT22;5195;48.562;9.192;2024-02-26T06:07:42;9.40;43.00
10300;DHT22;5195;48.562;9.192;2024-02-26T06:10:08;9.20;43.10
10300;DHT22;5195;48.562;9.192;2024-02-26T06:12:36;9.10;43.30
10300;DHT22;5195;48.562;9.192;2024-02-26T06:15:03;9.60;42.70
10300;DHT22;5195;48.562;9.192;2024-02-26T06:17:29;9.90;41.90
10300;DHT22;5195;48.562;9.192;2024-02-26T06:19:54;9.90;41.90
10300;DHT22;5195;48.562;9.192;2024-02-26T06:22:21;10.20;40.80
10300;DHT22;5195;48.562;9.192;2024-02-26T06:24:47;10.30;40.60
10300;DHT22;5195;48.562;9.192;2024-02-26T06:27:13;10.60;40.80
10300;DHT22;5195;48.562;9.192;2024-02-26T06:29:39;10.60;40.20
10300;DHT22;5195;48.562;9.192;2024-02-26T06:32:05;10.60;40.20
10300;DHT22;5195;48.562;9.192;2024-02-26T06:34:31;10.40;40.30
10300;DHT22;5195;48.562;9.192;2024-02-26T06:36:56;10.30;42.40
10300;DHT22;5195;48.562;9.192;2024-02-26T06:39:23;10.00;42.20
10300;DHT22;5195;48.562;9.192;2024-02-26T06:42:09;9.90;44.20
10300;DHT22;5195;48.562;9.192;2024-02-26T06:44:45;9.80;44.30
10300;DHT22;5195;48.562;9.192;2024-02-26T06:47:21;9.80;44.30
10300;DHT22;5195;48.562;9.192;2024-02-26T06:49:56;9.50;44.50
10300;DHT22;5195;48.562;9.192;2024-02-26T06:52:32;9.30;44.90
10300;DHT22;5195;48.562;9.192;2024-02-26T06:55:08;9.40;45.10
10300;DHT22;5195;48.562;9.192;2024-02-26T06:57:44;9.40;45.10
10300;DHT22;5195;48.562;9.192;2024-02-26T07:00:19;9.20;45.00
10300;DHT22;5195;48.562;9.192;2024-02-26T07:02:55;9.40;45.70
10300;DHT22;5195;48.562;9.192;2024-02-26T07:05:31;9.80;45.30
10300;DHT22;5195;48.562;9.192;2024-02-26T07:08:06;9.80;44.80
10300;DHT22;5195;48.562;9.192;2024-02-26T07:10:43;9.90;44.80
10300;DHT22;5195;48.562;9.192;2024-02-26T07:13:19;10.20;43.50
10300;DHT22;5195;48.562;9.192;2024-02-26T07:15:54;10.20;43.20
10300;DHT22;5195;48.562;9.192;2024-02-26T07:18:31;10.00;43.40
10300;DHT22;5195;48.562;9.192;2024-02-26T07:21:08;10.10;43.60
10300;DHT22;5195;48.562;9.192;2024-02-26T07:23:46;10.30;42.90
10300;DHT22;5195;48.562;9.192;2024-02-26T07:26:23;10.30;42.80
10300;DHT22;5195;48.562;9.192;2024-02-26T07:28:58;10.40;42.80
10300;DHT22;5195;48.562;9.192;2024-02-26T07:31:34;10.70;42.70
10300;DHT22;5195;48.562;9.192;2024-02-26T07:34:09;10.60;42.50
10300;DHT22;5195;48.562;9.192;2024-02-26T07:36:45;10.30;42.70
10300;DHT22;5195;48.562;9.192;2024-02-26T07:39:22;10.40;42.70
10300;DHT22;5195;48.562;9.192;2024-02-26T07:41:59;10.30;42.50
10300;DHT22;5195;48.562;9.192;2024-02-26T07:44:34;10.10;42.60
10300;DHT22;5195;48.562;9.192;2024-02-26T07:47:12;10.30;43.20
10300;DHT22;5195;48.562;9.192;2024-02-26T07:49:49;10.30;43.20
10300;DHT22;5195;48.562;9.192;2024-02-26T07:52:24;10.10;43.20
10300;DHT22;5195;48.562;9.192;2024-02-26T07:55:00;10.00;43.40
10300;DHT22;5195;48.562;9.192;2024-02-26T07:57:37;10.10;43.90
10300;DHT22;5195;48.562;9.192;2024-02-26T08:00:13;10.10;43.60
10300;DHT22;5195;48.562;9.192;2024-02-26T08:02:49;10.10;43.60
10300;DHT22;5195;48.562;9.192;2024-02-26T08:05:25;10.10;44.40
10300;DHT22;5195;48.562;9.192;2024-02-26T08:08:01;10.10;43.70
10300;DHT22;5195;48.562;9.192;2024-02-26T08:10:37;10.50;43.30
10300;DHT22;5195;48.562;9.192;2024-02-26T08:13:12;10.50;42.90
10300;DHT22;5195;48.562;9.192;2024-02-26T08:15:48;10.60;43.10
10300;DHT22;5195;48.562;9.192;2024-02-26T08:18:23;10.90;43.10
10300;DHT22;5195;48.562;9.192;2024-02-26T08:20:59;10.80;42.70
10300;DHT22;5195;48.562;9.192;2024-02-26T08:23:35;10.90;42.80
10300;DHT22;5195;48.562;9.192;2024-02-26T08:26:10;10.90;42.70
10300;DHT22;5195;48.562;9.192;2024-02-26T08:28:46;10.70;43.00
10300;DHT22;5195;48.562;9.192;2024-02-26T08:31:21;10.60;43.20
10300;DHT22;5195;48.562;9.192;2024-02-26T08:33:57;10.50;43.70
10300;DHT22;5195;48.562;9.192;2024-02-26T08:36:33;10.80;43.50
10300;DHT22;5195;48.562;9.192;2024-02-26T08:39:08;10.90;43.10
10300;DHT22;5195;48.562;9.192;2024-02-26T08:41:44;11.10;43.00
10300;DHT22;5195;48.562;9.192;2024-02-26T08:44:19;11.40;42.60
10300;DHT22;5195;48.562;9.192;2024-02-26T08:46:56;11.50;42.00
10300;DHT22;5195;48.562;9.192;2024-02-26T08:49:31;11.40;41.90
10300;DHT22;5195;48.562;9.192;2024-02-26T08:52:08;11.40;41.70
10300;DHT22;5195;48.562;9.192;2024-02-26T08:54:44;11.50;41.20
10300;DHT22;5195;48.562;9.192;2024-02-26T08:57:19;11.70;41.50
10300;DHT22;5195;48.562;9.192;2024-02-26T08:59:55;12.00;40.80
10300;DHT22;5195;48.562;9.192;2024-02-26T09:02:30;12.20;40.20
10300;DHT22;5195;48.562;9.192;2024-02-26T09:05:06;12.30;38.70
10300;DHT22;5195;48.562;9.192;2024-02-26T09:07:43;12.50;39.40
10300;DHT22;5195;48.562;9.192;2024-02-26T09:10:19;12.50;39.50
10300;DHT22;5195;48.562;9.192;2024-02-26T09:12:55;12.20;39.20
10300;DHT22;5195;48.562;9.192;2024-02-26T09:15:30;12.30;39.30
10300;DHT22;5195;48.562;9.192;2024-02-26T09:18:06;12.00;39.50
10300;DHT22;5195;48.562;9.192;2024-02-26T09:20:42;11.80;40.10
10300;DHT22;5195;48.562;9.192;2024-02-26T09:23:17;11.80;41.70
10300;DHT22;5195;48.562;9.192;2024-02-26T09:25:53;12.10;42.30
10300;DHT22;5195;48.562;9.192;2024-02-26T09:28:28;12.30;42.80
10300;DHT22;5195;48.562;9.192;2024-02-26T09:31:04;12.40;43.10
10300;DHT22;5195;48.562;9.192;2024-02-26T09:33:41;12.50;43.20
10300;DHT22;5195;48.562;9.192;2024-02-26T09:36:16;12.30;42.90
10300;DHT22;5195;48.562;9.192;2024-02-26T09:38:52;12.30;43.00
10300;DHT22;5195;48.562;9.192;2024-02-26T09:41:30;12.10;42.70
10300;DHT22;5195;48.562;9.192;2024-02-26T09:44:08;12.20;40.90
10300;DHT22;5195;48.562;9.192;2024-02-26T09:46:43;12.10;41.00
10300;DHT22;5195;48.562;9.192;2024-02-26T09:49:19;11.90;41.30
10300;DHT22;5195;48.562;9.192;2024-02-26T09:51:54;12.10;39.90
10300;DHT22;5195;48.562;9.192;2024-02-26T09:54:30;12.50;39.80
10300;DHT22;5195;48.562;9.192;2024-02-26T09:57:09;12.90;39.10
10300;DHT22;5195;48.562;9.192;2024-02-26T09:59:44;13.00;39.10
10300;DHT22;5195;48.562;9.192;2024-02-26T10:02:21;12.90;39.30
10300;DHT22;5195;48.562;9.192;2024-02-26T10:04:56;13.10;39.10
10300;DHT22;5195;48.562;9.192;2024-02-26T10:07:32;13.20;38.70
10300;DHT22;5195;48.562;9.192;2024-02-26T10:10:08;13.20;38.80
10300;DHT22;5195;48.562;9.192;2024-02-26T10:12:43;13.40;38.10
10300;DHT22;5195;48.562;9.192;2024-02-26T10:15:20;13.60;37.60
10300;DHT22;5195;48.562;9.192;2024-02-26T10:18:05;13.70;37.30
10300;DHT22;5195;48.562;9.192;2024-02-26T10:20:40;13.70;37.30
10300;DHT22;5195;48.562;9.192;2024-02-26T10:23:15;13.60;37.50
10300;DHT22;5195;48.562;9.192;2024-02-26T10:25:54;13.70;37.90
10300;DHT22;5195;48.562;9.192;2024-02-26T10:28:30;13.60;37.90
10300;DHT22;5195;48.562;9.192;2024-02-26T10:31:06;13.60;37.90
10300;DHT22;5195;48.562;9.192;2024-02-26T10:33:42;13.50;38.20
10300;DHT22;5195;48.562;9.192;2024-02-26T10:36:17;13.60;37.40
10300;DHT22;5195;48.562;9.192;2024-02-26T10:38:52;13.90;36.80
10300;DHT22;5195;48.562;9.192;2024-02-26T10:41:28;13.90;37.00
10300;DHT22;5195;48.562;9.192;2024-02-26T10:44:04;13.70;37.60
10300;DHT22;5195;48.562;9.192;2024-02-26T10:46:42;13.50;37.90
10300;DHT22;5195;48.562;9.192;2024-02-26T10:49:18;13.50;37.80
10300;DHT22;5195;48.562;9.192;2024-02-26T10:51:56;13.50;37.90
10300;DHT22;5195;48.562;9.192;2024-02-26T10:54:33;13.60;37.40
10300;DHT22;5195;48.562;9.192;2024-02-26T10:57:08;13.60;38.10
10300;DHT22;5195;48.562;9.192;2024-02-26T10:59:44;13.40;38.40
10300;DHT22;5195;48.562;9.192;2024-02-26T11:02:19;13.30;38.60
10300;DHT22;5195;48.562;9.192;2024-02-26T11:04:55;13.50;38.30
10300;DHT22;5195;48.562;9.192;2024-02-26T11:07:31;13.60;38.40
10300;DHT22;5195;48.562;9.192;2024-02-26T11:10:06;13.50;38.30
10300;DHT22;5195;48.562;9.192;2024-02-26T11:12:43;13.60;37.80
10300;DHT22;5195;48.562;9.192;2024-02-26T11:15:18;13.60;38.20
10300;DHT22;5195;48.562;9.192;2024-02-26T11:17:55;14.30;37.30
10300;DHT22;5195;48.562;9.192;2024-02-26T11:20:31;14.30;37.50
10300;DHT22;5195;48.562;9.192;2024-02-26T11:23:07;14.30;37.20
10300;DHT22;5195;48.562;9.192;2024-02-26T11:25:44;14.10;37.30
10300;DHT22;5195;48.562;9.192;2024-02-26T11:28:19;14.20;37.10
10300;DHT22;5195;48.562;9.192;2024-02-26T11:30:55;14.20;37.20
10300;DHT22;5195;48.562;9.192;2024-02-26T11:33:30;14.40;37.20
10300;DHT22;5195;48.562;9.192;2024-02-26T11:36:09;14.50;37.40
10300;DHT22;5195;48.562;9.192;2024-02-26T11:38:45;14.60;38.00
10300;DHT22;5195;48.562;9.192;2024-02-26T11:41:20;14.60;37.90
10300;DHT22;5195;48.562;9.192;2024-02-26T11:44:00;14.70;38.50
10300;DHT22;5195;48.562;9.192;2024-02-26T11:46:41;15.00;38.30
10300;DHT22;5195;48.562;9.192;2024-02-26T11:51:59;15.20;37.60
10300;DHT22;5195;48.562;9.192;2024-02-26T11:54:52;15.00;38.10
10300;DHT22;5195;48.562;9.192;2024-02-26T12:00:13;15.00;37.80
10300;DHT22;5195;48.562;9.192;2024-02-26T12:02:52;15.00;37.80
10300;DHT22;5195;48.562;9.192;2024-02-26T12:05:34;15.20;37.30
10300;DHT22;5195;48.562;9.192;2024-02-26T12:08:10;15.30;37.80
10300;DHT22;5195;48.562;9.192;2024-02-26T12:10:45;15.50;38.20
10300;DHT22;5195;48.562;9.192;2024-02-26T12:13:21;15.60;38.20
10300;DHT22;5195;48.562;9.192;2024-02-26T12:15:57;16.00;36.70
10300;DHT22;5195;48.562;9.192;2024-02-26T12:18:34;16.00;36.70
10300;DHT22;5195;48.562;9.192;2024-02-26T12:21:10;16.30;36.10
10300;DHT22;5195;48.562;9.192;2024-02-26T12:23:46;16.50;35.70
10300;DHT22;5195;48.562;9.192;2024-02-26T12:26:21;16.30;36.00
10300;DHT22;5195;48.562;9.192;2024-02-26T12:28:58;16.00;36.40
10300;DHT22;5195;48.562;9.192;2024-02-26T12:31:34;16.00;36.80
10300;DHT22;5195;48.562;9.192;2024-02-26T12:34:09;15.90;36.70
10300;DHT22;5195;48.562;9.192;2024-02-26T12:36:46;16.00;37.00
10300;DHT22;5195;48.562;9.192;2024-02-26T12:39:22;15.70;37.30
10300;DHT22;5195;48.562;9.192;2024-02-26T12:41:58;15.70;37.30
10300;DHT22;5195;48.562;9.192;2024-02-26T12:44:35;15.90;37.50
10300;DHT22;5195;48.562;9.192;2024-02-26T12:47:10;16.00;37.50
10300;DHT22;5195;48.562;9.192;2024-02-26T12:49:47;15.80;37.50
10300;DHT22;5195;48.562;9.192;2024-02-26T12:52:22;15.70;37.40
10300;DHT22;5195;48.562;9.192;2024-02-26T12:54:58;15.40;37.50
10300;DHT22;5195;48.562;9.192;2024-02-26T12:57:35;15.40;37.50
10300;DHT22;5195;48.562;9.192;2024-02-26T13:00:14;16.00;36.60
10300;DHT22;5195;48.562;9.192;2024-02-26T13:02:49;15.90;36.50
10300;DHT22;5195;48.562;9.192;2024-02-26T13:05:24;16.20;36.60
10300;DHT22;5195;48.562;9.192;2024-02-26T13:08:00;16.10;36.50
10300;DHT22;5195;48.562;9.192;2024-02-26T13:10:35;15.90;36.90
10300;DHT22;5195;48.562;9.192;2024-02-26T13:13:11;15.70;37.30
10300;DHT22;5195;48.562;9.192;2024-02-26T13:15:47;15.60;37.50
10300;DHT22;5195;48.562;9.192;2024-02-26T13:18:27;15.70;38.00
10300;DHT22;5195;48.562;9.192;2024-02-26T13:21:09;15.90;38.00
10300;DHT22;5195;48.562;9.192;2024-02-26T13:23:48;15.90;38.00
10300;DHT22;5195;48.562;9.192;2024-02-26T13:26:21;16.20;37.60
10300;DHT22;5195;48.562;9.192;2024-02-26T13:28:59;16.10;37.40
10300;DHT22;5195;48.562;9.192;2024-02-26T13:31:40;16.20;37.20
10300;DHT22;5195;48.562;9.192;2024-02-26T13:34:23;16.10;37.10
10300;DHT22;5195;48.562;9.192;2024-02-26T13:36:58;15.90;37.40
10300;DHT22;5195;48.562;9.192;2024-02-26T13:39:34;16.00;37.00
10300;DHT22;5195;48.562;9.192;2024-02-26T13:42:10;16.30;36.60
10300;DHT22;5195;48.562;9.192;2024-02-26T13:44:45;16.20;36.50
10300;DHT22;5195;48.562;9.192;2024-02-26T13:47:21;16.40;36.70
10300;DHT22;5195;48.562;9.192;2024-02-26T13:50:00;16.60;36.10
10300;DHT22;5195;48.562;9.192;2024-02-26T13:52:36;16.50;36.10
10300;DHT22;5195;48.562;9.192;2024-02-26T13:55:11;16.30;36.40
10300;DHT22;5195;48.562;9.192;2024-02-26T13:57:47;16.10;36.60
10300;DHT22;5195;48.562;9.192;2024-02-26T14:00:22;15.90;36.60
10300;DHT22;5195;48.562;9.192;2024-02-26T14:02:58;16.10;36.00
10300;DHT22;5195;48.562;9.192;2024-02-26T14:05:34;16.10;35.80
10300;DHT22;5195;48.562;9.192;2024-02-26T14:08:11;15.90;36.30
10300;DHT22;5195;48.562;9.192;2024-02-26T14:10:47;15.90;36.30
10300;DHT22;5195;48.562;9.192;2024-02-26T14:13:23;15.70;36.40
10300;DHT22;5195;48.562;9.192;2024-02-26T14:15:58;15.90;35.60
10300;DHT22;5195;48.562;9.192;2024-02-26T14:18:34;16.00;35.70
10300;DHT22;5195;48.562;9.192;2024-02-26T14:21:09;16.20;35.70
10300;DHT22;5195;48.562;9.192;2024-02-26T14:23:46;16.20;35.40
10300;DHT22;5195;48.562;9.192;2024-02-26T14:26:22;16.00;35.50
10300;DHT22;5195;48.562;9.192;2024-02-26T14:28:58;15.90;35.70
10300;DHT22;5195;48.562;9.192;2024-02-26T14:31:34;15.80;35.80
10300;DHT22;5195;48.562;9.192;2024-02-26T14:34:09;16.00;35.00
10300;DHT22;5195;48.562;9.192;2024-02-26T14:36:46;16.50;34.90
10300;DHT22;5195;48.562;9.192;2024-02-26T14:39:21;16.50;34.20
10300;DHT22;5195;48.562;9.192;2024-02-26T14:41:58;16.60;33.40
10300;DHT22;5195;48.562;9.192;2024-02-26T14:44:36;16.00;34.00
10300;DHT22;5195;48.562;9.192;2024-02-26T14:47:12;16.00;34.70
10300;DHT22;5195;48.562;9.192;2024-02-26T14:49:47;15.70;34.40
10300;DHT22;5195;48.562;9.192;2024-02-26T14:52:23;15.70;34.60
10300;DHT22;5195;48.562;9.192;2024-02-26T14:54:59;15.70;34.60
10300;DHT22;5195;48.562;9.192;2024-02-26T14:57:35;15.50;34.80
10300;DHT22;5195;48.562;9.192;2024-02-26T15:00:11;15.60;34.50
10300;DHT22;5195;48.562;9.192;2024-02-26T15:02:46;15.60;34.50
10300;DHT22;5195;48.562;9.192;2024-02-26T15:05:22;15.50;34.80
10300;DHT22;5195;48.562;9.192;2024-02-26T15:07:58;15.60;34.40
10300;DHT22;5195;48.562;9.192;2024-02-26T15:10:33;15.60;34.30
10300;DHT22;5195;48.562;9.192;2024-02-26T15:13:09;15.70;33.90
10300;DHT22;5195;48.562;9.192;2024-02-26T15:15:45;15.70;33.90
10300;DHT22;5195;48.562;9.192;2024-02-26T15:18:21;15.50;34.10
10300;DHT22;5195;48.562;9.192;2024-02-26T15:20:57;15.10;34.60
10300;DHT22;5195;48.562;9.192;2024-02-26T15:23:32;15.10;34.50
10300;DHT22;5195;48.562;9.192;2024-02-26T15:26:08;14.90;34.80
10300;DHT22;5195;48.562;9.192;2024-02-26T15:28:44;14.80;35.10
10300;DHT22;5195;48.562;9.192;2024-02-26T15:31:19;15.00;35.70
10300;DHT22;5195;48.562;9.192;2024-02-26T15:33:56;15.30;35.80
10300;DHT22;5195;48.562;9.192;2024-02-26T15:36:31;15.30;35.20
10300;DHT22;5195;48.562;9.192;2024-02-26T15:39:07;15.10;35.40
10300;DHT22;5195;48.562;9.192;2024-02-26T15:41:42;15.10;35.60
10300;DHT22;5195;48.562;9.192;2024-02-26T15:44:18;15.10;35.50
10300;DHT22;5195;48.562;9.192;2024-02-26T15:46:53;14.90;35.70
10300;DHT22;5195;48.562;9.192;2024-02-26T15:49:29;15.00;36.30
10300;DHT22;5195;48.562;9.192;2024-02-26T15:52:05;15.20;36.10
10300;DHT22;5195;48.562;9.192;2024-02-26T15:54:40;15.40;36.00
10300;DHT22;5195;48.562;9.192;2024-02-26T15:57:16;15.30;35.90
10300;DHT22;5195;48.562;9.192;2024-02-26T15:59:51;14.90;36.00
10300;DHT22;5195;48.562;9.192;2024-02-26T16:02:27;14.70;36.50
10300;DHT22;5195;48.562;9.192;2024-02-26T16:05:06;14.50;36.90
10300;DHT22;5195;48.562;9.192;2024-02-26T16:07:43;14.30;37.20
10300;DHT22;5195;48.562;9.192;2024-02-26T16:10:17;14.10;37.40
10300;DHT22;5195;48.562;9.192;2024-02-26T16:12:53;14.00;37.70
10300;DHT22;5195;48.562;9.192;2024-02-26T16:15:31;13.90;38.00
10300;DHT22;5195;48.562;9.192;2024-02-26T16:18:12;13.60;39.00
10300;DHT22;5195;48.562;9.192;2024-02-26T16:20:48;13.90;39.70